sensor_id;sensor_type;location;lat;lon;timestamp;pressure;altitude;pressure_sealevel;temperature;humidity
6427;BME280;3246;42.664;23.308;2024-03-07T00:02:10;120715.88;;;-142.62;86.38
6427;BME280;3246;42.664;23.308;2024-03-07T00:04:38;120715.88;;;-142.62;86.26
6427;BME280;3246;42.664;23.308;2024-03-07T00:07:05;120715.88;;;-142.62;86.57
6427;BME280;3246;42.664;23.308;2024-03-07T00:09:33;120715.88;;;-142.62;86.74
6427;BME280;3246;42.664;23.308;2024-03-07T00:12:00;120715.88;;;-142.62;86.62
6427;BME280;3246;42.664;23.308;2024-03-07T00:14:26;120715.88;;;-142.62;87.11
6427;BME280;3246;42.664;23.308;2024-03-07T00:16:54;120715.88;;;-142.62;87.28
6427;BME280;3246;42.664;23.308;2024-03-07T00:19:21;120715.88;;;-142.62;87.74
6427;BME280;3246;42.664;23.308;2024-03-07T00:21:48;120715.88;;;-142.62;88.71
6427;BME280;3246;42.664;23.308;2024-03-07T00:24:15;120715.88;;;-142.62;89.85
6427;BME280;3246;42.664;23.308;2024-03-07T00:26:41;120715.88;;;-142.62;90.60
6427;BME280;3246;42.664;23.308;2024-03-07T00:29:08;120715.88;;;-142.62;91.13
6427;BME280;3246;42.664;23.308;2024-03-07T00:31:36;120715.88;;;-142.62;91.38
6427;BME280;3246;42.664;23.308;2024-03-07T00:34:02;120715.88;;;-142.62;91.94
6427;BME280;3246;42.664;23.308;2024-03-07T00:36:29;120715.88;;;-142.62;92.87
6427;BME280;3246;42.664;23.308;2024-03-07T00:38:57;120715.88;;;-142.62;93.32
6427;BME280;3246;42.664;23.308;2024-03-07T00:41:25;120715.88;;;-142.62;93.55
6427;BME280;3246;42.664;23.308;2024-03-07T00:43:52;120715.88;;;-142.62;93.49
6427;BME280;3246;42.664;23.308;2024-03-07T00:46:19;120715.88;;;-142.62;93.19
6427;BME280;3246;42.664;23.308;2024-03-07T00:48:46;120715.88;;;-142.62;92.97
6427;BME280;3246;42.664;23.308;2024-03-07T00:51:13;120715.88;;;-142.62;91.96
6427;BME280;3246;42.664;23.308;2024-03-07T00:53:40;120715.88;;;-142.62;91.71
6427;BME280;3246;42.664;23.308;2024-03-07T00:56:08;120715.88;;;-142.62;92.23
6427;BME280;3246;42.664;23.308;2024-03-07T00:58:35;120715.88;;;-142.62;91.63
6427;BME280;3246;42.664;23.308;2024-03-07T01:01:02;120715.88;;;-142.62;91.39
6427;BME280;3246;42.664;23.308;2024-03-07T01:03:29;120715.88;;;-142.62;91.79
6427;BME280;3246;42.664;23.308;2024-03-07T01:05:55;120715.88;;;-142.62;91.24
6427;BME280;3246;42.664;23.308;2024-03-07T01:08:22;120715.88;;;-142.62;91.76
6427;BME280;3246;42.664;23.308;2024-03-07T01:10:49;120715.88;;;-142.62;92.46
6427;BME280;3246;42.664;23.308;2024-03-07T01:13:17;120715.88;;;-142.62;93.17
6427;BME280;3246;42.664;23.308;2024-03-07T01:15:47;120715.88;;;-142.62;93.15
6427;BME280;3246;42.664;23.308;2024-03-07T01:18:15;120715.88;;;-142.62;93.28
6427;BME280;3246;42.664;23.308;2024-03-07T01:20:42;120715.88;;;-142.62;94.16
6427;BME280;3246;42.664;23.308;2024-03-07T01:23:09;120715.88;;;-142.62;93.88
6427;BME280;3246;42.664;23.308;2024-03-07T01:25:36;120715.88;;;-142.62;93.29
6427;BME280;3246;42.664;23.308;2024-03-07T01:28:03;120715.88;;;-142.62;92.82
6427;BME280;3246;42.664;23.308;2024-03-07T01:30:32;120715.88;;;-142.62;92.50
6427;BME280;3246;42.664;23.308;2024-03-07T01:32:59;120715.88;;;-142.62;93.08
6427;BME280;3246;42.664;23.308;2024-03-07T01:35:25;120715.88;;;-142.62;92.42
6427;BME280;3246;42.664;23.308;2024-03-07T01:37:52;120715.88;;;-142.62;93.16
6427;BME280;3246;42.664;23.308;2024-03-07T01:40:20;120715.88;;;-142.62;92.91
6427;BME280;3246;42.664;23.308;2024-03-07T01:42:48;120715.88;;;-142.62;92.88
6427;BME280;3246;42.664;23.308;2024-03-07T01:45:16;120715.88;;;-142.62;92.73
6427;BME280;3246;42.664;23.308;2024-03-07T01:47:45;120715.88;;;-142.62;93.56
6427;BME280;3246;42.664;23.308;2024-03-07T01:50:12;120715.88;;;-142.62;93.27
6427;BME280;3246;42.664;23.308;2024-03-07T01:52:40;120715.88;;;-142.62;94.37
6427;BME280;3246;42.664;23.308;2024-03-07T01:55:08;120715.88;;;-142.62;94.24
6427;BME280;3246;42.664;23.308;2024-03-07T01:57:36;120715.88;;;-142.62;94.51
6427;BME280;3246;42.664;23.308;2024-03-07T02:00:05;120715.88;;;-142.62;95.04
6427;BME280;3246;42.664;23.308;2024-03-07T02:02:32;120715.88;;;-142.62;94.82
6427;BME280;3246;42.664;23.308;2024-03-07T02:05:00;120715.88;;;-142.62;95.00
6427;BME280;3246;42.664;23.308;2024-03-07T02:07:27;120715.88;;;-142.62;94.22
6427;BME280;3246;42.664;23.308;2024-03-07T02:10:01;120715.88;;;-142.62;95.03
6427;BME280;3246;42.664;23.308;2024-03-07T02:12:29;120715.88;;;-142.62;95.04
6427;BME280;3246;42.664;23.308;2024-03-07T02:14:56;120715.88;;;-142.62;94.38
6427;BME280;3246;42.664;23.308;2024-03-07T02:17:24;120715.88;;;-142.62;94.63
6427;BME280;3246;42.664;23.308;2024-03-07T02:19:50;120715.88;;;-142.62;93.06
6427;BME280;3246;42.664;23.308;2024-03-07T02:22:19;120715.88;;;-142.62;91.46
6427;BME280;3246;42.664;23.308;2024-03-07T02:24:46;120715.88;;;-142.62;92.63
6427;BME280;3246;42.664;23.308;2024-03-07T02:27:13;120715.88;;;-142.62;93.41
6427;BME280;3246;42.664;23.308;2024-03-07T02:29:40;120715.88;;;-142.62;93.67
6427;BME280;3246;42.664;23.308;2024-03-07T02:32:07;120715.88;;;-142.62;93.41
6427;BME280;3246;42.664;23.308;2024-03-07T02:34:35;120715.88;;;-142.62;93.08
6427;BME280;3246;42.664;23.308;2024-03-07T02:37:02;120715.88;;;-142.62;94.12
6427;BME280;3246;42.664;23.308;2024-03-07T02:39:30;120715.88;;;-142.62;92.23
6427;BME280;3246;42.664;23.308;2024-03-07T02:41:57;120715.88;;;-142.62;92.15
6427;BME280;3246;42.664;23.308;2024-03-07T02:44:24;120715.88;;;-142.62;90.73
6427;BME280;3246;42.664;23.308;2024-03-07T02:46:51;120715.88;;;-142.62;91.18
6427;BME280;3246;42.664;23.308;2024-03-07T02:49:18;120715.88;;;-142.62;90.51
6427;BME280;3246;42.664;23.308;2024-03-07T02:51:46;120715.88;;;-142.62;88.35
6427;BME280;3246;42.664;23.308;2024-03-07T02:54:13;120715.88;;;-142.62;87.07
6427;BME280;3246;42.664;23.308;2024-03-07T02:56:41;120715.88;;;-142.62;86.71
6427;BME280;3246;42.664;23.308;2024-03-07T02:59:08;120715.88;;;-142.62;88.17
6427;BME280;3246;42.664;23.308;2024-03-07T03:01:35;120715.88;;;-142.62;87.95
6427;BME280;3246;42.664;23.308;2024-03-07T03:04:02;120715.88;;;-142.62;88.19
6427;BME280;3246;42.664;23.308;2024-03-07T03:06:29;120715.88;;;-142.62;87.21
6427;BME280;3246;42.664;23.308;2024-03-07T03:08:56;120715.88;;;-142.62;86.05
6427;BME280;3246;42.664;23.308;2024-03-07T03:11:23;120715.88;;;-142.62;84.26
6427;BME280;3246;42.664;23.308;2024-03-07T03:13:52;120715.88;;;-142.62;85.97
6427;BME280;3246;42.664;23.308;2024-03-07T03:16:19;120715.88;;;-142.62;86.76
6427;BME280;3246;42.664;23.308;2024-03-07T03:18:47;120715.88;;;-142.62;87.10
6427;BME280;3246;42.664;23.308;2024-03-07T03:21:14;120715.88;;;-142.62;87.40
6427;BME280;3246;42.664;23.308;2024-03-07T03:23:42;120715.88;;;-142.62;88.73
6427;BME280;3246;42.664;23.308;2024-03-07T03:26:09;120715.88;;;-142.62;89.30
6427;BME280;3246;42.664;23.308;2024-03-07T03:28:36;120715.88;;;-142.62;88.97
6427;BME280;3246;42.664;23.308;2024-03-07T03:31:06;120715.88;;;-142.62;88.73
6427;BME280;3246;42.664;23.308;2024-03-07T03:33:34;120715.88;;;-142.62;89.19
6427;BME280;3246;42.664;23.308;2024-03-07T03:36:01;120715.88;;;-142.62;88.90
6427;BME280;3246;42.664;23.308;2024-03-07T03:38:28;120715.88;;;-142.62;90.70
6427;BME280;3246;42.664;23.308;2024-03-07T03:40:55;120715.88;;;-142.62;90.97
6427;BME280;3246;42.664;23.308;2024-03-07T03:43:22;120715.88;;;-142.62;92.97
6427;BME280;3246;42.664;23.308;2024-03-07T03:45:48;120715.88;;;-142.62;92.76
6427;BME280;3246;42.664;23.308;2024-03-07T03:48:16;120715.88;;;-142.62;92.01
6427;BME280;3246;42.664;23.308;2024-03-07T03:50:43;120715.88;;;-142.62;90.83
6427;BME280;3246;42.664;23.308;2024-03-07T03:53:11;120715.88;;;-142.62;90.43
6427;BME280;3246;42.664;23.308;2024-03-07T03:55:38;120715.88;;;-142.62;91.06
6427;BME280;3246;42.664;23.308;2024-03-07T03:58:05;120715.88;;;-142.62;91.15
6427;BME280;3246;42.664;23.308;2024-03-07T04:00:32;120715.88;;;-142.62;91.78
6427;BME280;3246;42.664;23.308;2024-03-07T04:02:59;120715.88;;;-142.62;90.33
6427;BME280;3246;42.664;23.308;2024-03-07T04:05:27;120715.88;;;-142.62;89.75
6427;BME280;3246;42.664;23.308;2024-03-07T04:07:54;120715.88;;;-142.62;89.03
6427;BME280;3246;42.664;23.308;2024-03-07T04:10:22;120715.88;;;-142.62;88.93
6427;BME280;3246;42.664;23.308;2024-03-07T04:12:48;120715.88;;;-142.62;89.72
6427;BME280;3246;42.664;23.308;2024-03-07T04:15:16;120715.88;;;-142.62;89.56
6427;BME280;3246;42.664;23.308;2024-03-07T04:17:43;120715.88;;;-142.62;90.25
6427;BME280;3246;42.664;23.308;2024-03-07T04:20:11;120715.88;;;-142.62;90.48
6427;BME280;3246;42.664;23.308;2024-03-07T04:22:40;120715.88;;;-142.62;90.71
6427;BME280;3246;42.664;23.308;2024-03-07T04:25:08;120715.88;;;-142.62;90.91
6427;BME280;3246;42.664;23.308;2024-03-07T04:27:36;120715.88;;;-142.62;90.28
6427;BME280;3246;42.664;23.308;2024-03-07T04:30:06;120715.88;;;-142.62;90.09
6427;BME280;3246;42.664;23.308;2024-03-07T04:32:36;120715.88;;;-142.62;90.14
6427;BME280;3246;42.664;23.308;2024-03-07T04:35:03;120715.88;;;-142.62;89.37
6427;BME280;3246;42.664;23.308;2024-03-07T04:37:33;120715.88;;;-142.62;89.26
6427;BME280;3246;42.664;23.308;2024-03-07T04:40:05;120715.88;;;-142.62;88.60
6427;BME280;3246;42.664;23.308;2024-03-07T04:42:40;120715.88;;;-142.62;87.45
6427;BME280;3246;42.664;23.308;2024-03-07T04:45:08;120715.88;;;-142.62;87.28
6427;BME280;3246;42.664;23.308;2024-03-07T04:47:38;120715.88;;;-142.62;86.99
6427;BME280;3246;42.664;23.308;2024-03-07T04:50:06;120715.88;;;-142.62;85.96
6427;BME280;3246;42.664;23.308;2024-03-07T04:52:36;120715.88;;;-142.62;85.53
6427;BME280;3246;42.664;23.308;2024-03-07T04:55:05;120715.88;;;-142.62;84.45
6427;BME280;3246;42.664;23.308;2024-03-07T04:57:33;120715.88;;;-142.62;85.18
6427;BME280;3246;42.664;23.308;2024-03-07T05:00:00;120715.88;;;-142.62;84.88
6427;BME280;3246;42.664;23.308;2024-03-07T05:02:28;120715.88;;;-142.62;84.84
6427;BME280;3246;42.664;23.308;2024-03-07T05:04:56;120715.88;;;-142.62;85.08
6427;BME280;3246;42.664;23.308;2024-03-07T05:07:23;120715.88;;;-142.62;85.17
6427;BME280;3246;42.664;23.308;2024-03-07T05:09:49;120715.88;;;-142.62;83.70
6427;BME280;3246;42.664;23.308;2024-03-07T05:12:18;120715.88;;;-142.62;83.33
6427;BME280;3246;42.664;23.308;2024-03-07T05:14:44;120715.88;;;-142.62;84.60
6427;BME280;3246;42.664;23.308;2024-03-07T05:17:11;120715.88;;;-142.62;85.69
6427;BME280;3246;42.664;23.308;2024-03-07T05:19:38;120715.88;;;-142.62;87.58
6427;BME280;3246;42.664;23.308;2024-03-07T05:22:05;120715.88;;;-142.62;86.86
6427;BME280;3246;42.664;23.308;2024-03-07T05:24:32;120715.88;;;-142.62;87.60
6427;BME280;3246;42.664;23.308;2024-03-07T05:26:59;120715.88;;;-142.62;87.46
6427;BME280;3246;42.664;23.308;2024-03-07T05:29:28;120715.88;;;-142.62;88.38
6427;BME280;3246;42.664;23.308;2024-03-07T05:31:54;120715.88;;;-142.62;88.14
6427;BME280;3246;42.664;23.308;2024-03-07T05:34:21;120715.88;;;-142.62;89.05
6427;BME280;3246;42.664;23.308;2024-03-07T05:36:49;120715.88;;;-142.62;88.65
6427;BME280;3246;42.664;23.308;2024-03-07T05:39:16;120715.88;;;-142.62;88.30
6427;BME280;3246;42.664;23.308;2024-03-07T05:41:44;120715.88;;;-142.62;89.40
6427;BME280;3246;42.664;23.308;2024-03-07T05:44:11;120715.88;;;-142.62;89.21
6427;BME280;3246;42.664;23.308;2024-03-07T05:46:39;120715.88;;;-142.62;89.01
6427;BME280;3246;42.664;23.308;2024-03-07T05:49:11;120715.88;;;-142.62;88.29
6427;BME280;3246;42.664;23.308;2024-03-07T05:51:38;120715.88;;;-142.62;87.90
6427;BME280;3246;42.664;23.308;2024-03-07T05:54:07;120715.88;;;-142.62;87.31
6427;BME280;3246;42.664;23.308;2024-03-07T05:56:34;120715.88;;;-142.62;86.59
6427;BME280;3246;42.664;23.308;2024-03-07T05:59:02;120715.88;;;-142.62;87.08
6427;BME280;3246;42.664;23.308;2024-03-07T06:01:30;120715.88;;;-142.62;86.34
6427;BME280;3246;42.664;23.308;2024-03-07T06:04:01;120715.88;;;-142.62;86.91
6427;BME280;3246;42.664;23.308;2024-03-07T06:06:28;120715.88;;;-142.62;86.33
6427;BME280;3246;42.664;23.308;2024-03-07T06:08:58;120715.88;;;-142.62;85.99
6427;BME280;3246;42.664;23.308;2024-03-07T06:11:25;120715.88;;;-142.62;85.77
6427;BME280;3246;42.664;23.308;2024-03-07T06:13:52;120715.88;;;-142.62;85.00
6427;BME280;3246;42.664;23.308;2024-03-07T06:16:18;120715.88;;;-142.62;85.26
6427;BME280;3246;42.664;23.308;2024-03-07T06:18:45;120715.88;;;-142.62;85.23
6427;BME280;3246;42.664;23.308;2024-03-07T06:21:14;120715.88;;;-142.62;84.53
6427;BME280;3246;42.664;23.308;2024-03-07T06:23:41;120715.88;;;-142.62;84.00
6427;BME280;3246;42.664;23.308;2024-03-07T06:26:13;120715.88;;;-142.62;83.72
6427;BME280;3246;42.664;23.308;2024-03-07T06:28:42;120715.88;;;-142.62;82.89
6427;BME280;3246;42.664;23.308;2024-03-07T06:31:10;120715.88;;;-142.62;83.42
6427;BME280;3246;42.664;23.308;2024-03-07T06:33:37;120715.88;;;-142.62;84.10
6427;BME280;3246;42.664;23.308;2024-03-07T06:36:04;120715.88;;;-142.62;83.90
6427;BME280;3246;42.664;23.308;2024-03-07T06:38:33;120715.88;;;-142.62;83.20
6427;BME280;3246;42.664;23.308;2024-03-07T06:41:00;120715.88;;;-142.62;83.90
6427;BME280;3246;42.664;23.308;2024-03-07T06:43:27;120715.88;;;-142.62;82.62
6427;BME280;3246;42.664;23.308;2024-03-07T06:45:54;120715.88;;;-142.62;82.87
6427;BME280;3246;42.664;23.308;2024-03-07T06:48:21;120715.88;;;-142.62;84.14
6427;BME280;3246;42.664;23.308;2024-03-07T06:50:48;120715.88;;;-142.62;83.95
6427;BME280;3246;42.664;23.308;2024-03-07T06:53:16;120715.88;;;-142.62;84.66
6427;BME280;3246;42.664;23.308;2024-03-07T06:55:44;120715.88;;;-142.62;85.05
6427;BME280;3246;42.664;23.308;2024-03-07T06:58:11;120715.88;;;-142.62;85.63
6427;BME280;3246;42.664;23.308;2024-03-07T07:00:38;120715.88;;;-142.62;85.82
6427;BME280;3246;42.664;23.308;2024-03-07T07:03:05;120715.88;;;-142.62;86.43
6427;BME280;3246;42.664;23.308;2024-03-07T07:05:32;120715.88;;;-142.62;87.23
6427;BME280;3246;42.664;23.308;2024-03-07T07:07:59;120715.88;;;-142.62;87.42
6427;BME280;3246;42.664;23.308;2024-03-07T07:10:26;120715.88;;;-142.62;85.98
6427;BME280;3246;42.664;23.308;2024-03-07T07:12:54;120715.88;;;-142.62;86.62
6427;BME280;3246;42.664;23.308;2024-03-07T07:15:21;120715.88;;;-142.62;85.76
6427;BME280;3246;42.664;23.308;2024-03-07T07:17:49;120715.88;;;-142.62;86.00
6427;BME280;3246;42.664;23.308;2024-03-07T07:20:16;120715.88;;;-142.62;86.53
6427;BME280;3246;42.664;23.308;2024-03-07T07:22:44;120715.88;;;-142.62;87.19
6427;BME280;3246;42.664;23.308;2024-03-07T07:25:12;120715.88;;;-142.62;87.08
6427;BME280;3246;42.664;23.308;2024-03-07T07:27:44;120715.88;;;-142.62;86.95
6427;BME280;3246;42.664;23.308;2024-03-07T07:30:14;120715.88;;;-142.62;85.63
6427;BME280;3246;42.664;23.308;2024-03-07T07:32:42;120715.88;;;-142.62;85.32
6427;BME280;3246;42.664;23.308;2024-03-07T07:35:10;120715.88;;;-142.62;84.51
6427;BME280;3246;42.664;23.308;2024-03-07T07:37:38;120715.88;;;-142.62;83.29
6427;BME280;3246;42.664;23.308;2024-03-07T07:40:06;120715.88;;;-142.62;82.41
6427;BME280;3246;42.664;23.308;2024-03-07T07:42:35;120715.88;;;-142.62;82.94
6427;BME280;3246;42.664;23.308;2024-03-07T07:45:06;120715.88;;;-142.62;82.05
6427;BME280;3246;42.664;23.308;2024-03-07T07:47:38;120715.88;;;-142.62;82.37
6427;BME280;3246;42.664;23.308;2024-03-07T07:50:07;120715.88;;;-142.62;82.86
6427;BME280;3246;42.664;23.308;2024-03-07T07:52:40;120715.88;;;-142.62;83.97
6427;BME280;3246;42.664;23.308;2024-03-07T07:55:07;120715.88;;;-142.62;83.65
6427;BME280;3246;42.664;23.308;2024-03-07T07:57:40;120715.88;;;-142.62;83.09
6427;BME280;3246;42.664;23.308;2024-03-07T08:00:09;120715.88;;;-142.62;83.19
6427;BME280;3246;42.664;23.308;2024-03-07T08:02:37;120715.88;;;-142.62;82.48
6427;BME280;3246;42.664;23.308;2024-03-07T08:05:04;120715.88;;;-142.62;82.36
6427;BME280;3246;42.664;23.308;2024-03-07T08:07:31;120715.88;;;-142.62;82.14
6427;BME280;3246;42.664;23.308;2024-03-07T08:09:58;120715.88;;;-142.62;82.58
6427;BME280;3246;42.664;23.308;2024-03-07T08:12:25;120715.88;;;-142.62;81.92
6427;BME280;3246;42.664;23.308;2024-03-07T08:14:52;120715.88;;;-142.62;81.22
6427;BME280;3246;42.664;23.308;2024-03-07T08:17:18;120715.88;;;-142.62;81.55
6427;BME280;3246;42.664;23.308;2024-03-07T08:19:48;120715.88;;;-142.62;81.39
6427;BME280;3246;42.664;23.308;2024-03-07T08:22:16;120715.88;;;-142.62;81.33
6427;BME280;3246;42.664;23.308;2024-03-07T08:24:44;120715.88;;;-142.62;81.38
6427;BME280;3246;42.664;23.308;2024-03-07T08:27:12;120715.88;;;-142.62;80.14
6427;BME280;3246;42.664;23.308;2024-03-07T08:29:38;120715.88;;;-142.62;80.00
6427;BME280;3246;42.664;23.308;2024-03-07T08:32:06;120715.88;;;-142.62;79.92
6427;BME280;3246;42.664;23.308;2024-03-07T08:34:33;120715.88;;;-142.62;80.16
6427;BME280;3246;42.664;23.308;2024-03-07T08:37:01;120715.88;;;-142.62;79.97
6427;BME280;3246;42.664;23.308;2024-03-07T08:39:30;120715.88;;;-142.62;78.44
6427;BME280;3246;42.664;23.308;2024-03-07T08:41:57;120715.88;;;-142.62;77.30
6427;BME280;3246;42.664;23.308;2024-03-07T08:44:24;120715.88;;;-142.62;77.83
6427;BME280;3246;42.664;23.308;2024-03-07T08:46:51;120715.88;;;-142.62;77.31
6427;BME280;3246;42.664;23.308;2024-03-07T08:49:18;120715.88;;;-142.62;76.84
6427;BME280;3246;42.664;23.308;2024-03-07T08:51:45;120715.88;;;-142.62;77.14
6427;BME280;3246;42.664;23.308;2024-03-07T08:54:14;120715.88;;;-142.62;77.86
6427;BME280;3246;42.664;23.308;2024-03-07T08:56:41;120715.88;;;-142.62;77.64
6427;BME280;3246;42.664;23.308;2024-03-07T08:59:08;120715.88;;;-142.62;77.83
6427;BME280;3246;42.664;23.308;2024-03-07T09:01:41;120715.88;;;-142.62;77.46
6427;BME280;3246;42.664;23.308;2024-03-07T09:04:09;120715.88;;;-142.62;77.48
6427;BME280;3246;42.664;23.308;2024-03-07T09:06:37;120715.88;;;-142.62;76.48
6427;BME280;3246;42.664;23.308;2024-03-07T09:09:03;120715.88;;;-142.62;76.43
6427;BME280;3246;42.664;23.308;2024-03-07T09:11:35;120715.88;;;-142.62;77.62
6427;BME280;3246;42.664;23.308;2024-03-07T09:14:03;120715.88;;;-142.62;78.34
6427;BME280;3246;42.664;23.308;2024-03-07T09:16:34;120715.88;;;-142.62;77.90
6427;BME280;3246;42.664;23.308;2024-03-07T09:19:01;120715.88;;;-142.62;77.41
6427;BME280;3246;42.664;23.308;2024-03-07T09:21:28;120715.88;;;-142.62;76.06
6427;BME280;3246;42.664;23.308;2024-03-07T09:23:55;120715.88;;;-142.62;76.73
6427;BME280;3246;42.664;23.308;2024-03-07T09:26:22;120715.88;;;-142.62;76.82
6427;BME280;3246;42.664;23.308;2024-03-07T09:28:50;120715.88;;;-142.62;77.34
6427;BME280;3246;42.664;23.308;2024-03-07T09:31:17;120715.88;;;-142.62;77.16
6427;BME280;3246;42.664;23.308;2024-03-07T09:33:44;120715.88;;;-142.62;76.84
6427;BME280;3246;42.664;23.308;2024-03-07T09:36:11;120715.88;;;-142.62;76.65
6427;BME280;3246;42.664;23.308;2024-03-07T09:38:38;120715.88;;;-142.62;77.11
6427;BME280;3246;42.664;23.308;2024-03-07T09:41:05;120715.88;;;-142.62;76.82
6427;BME280;3246;42.664;23.308;2024-03-07T09:43:33;120715.88;;;-142.62;76.69
6427;BME280;3246;42.664;23.308;2024-03-07T09:46:03;120715.88;;;-142.62;76.56
6427;BME280;3246;42.664;23.308;2024-03-07T09:48:31;120715.88;;;-142.62;77.06
6427;BME280;3246;42.664;23.308;2024-03-07T09:50:58;120715.88;;;-142.62;77.03
6427;BME280;3246;42.664;23.308;2024-03-07T09:53:27;120715.88;;;-142.62;76.83
6427;BME280;3246;42.664;23.308;2024-03-07T09:55:54;120715.88;;;-142.62;77.06
6427;BME280;3246;42.664;23.308;2024-03-07T09:58:25;120715.88;;;-142.62;77.11
6427;BME280;3246;42.664;23.308;2024-03-07T10:00:56;120715.88;;;-142.62;78.36
6427;BME280;3246;42.664;23.308;2024-03-07T10:03:29;120715.88;;;-142.62;78.40
6427;BME280;3246;42.664;23.308;2024-03-07T10:05:56;120715.88;;;-142.62;80.00
6427;BME280;3246;42.664;23.308;2024-03-07T10:08:23;120715.88;;;-142.62;80.51
6427;BME280;3246;42.664;23.308;2024-03-07T10:10:51;120715.88;;;-142.62;80.29
6427;BME280;3246;42.664;23.308;2024-03-07T10:13:18;120715.88;;;-142.62;80.66
6427;BME280;3246;42.664;23.308;2024-03-07T10:15:47;120715.88;;;-142.62;79.68
6427;BME280;3246;42.664;23.308;2024-03-07T10:18:15;120715.88;;;-142.62;79.48
6427;BME280;3246;42.664;23.308;2024-03-07T10:20:46;120715.88;;;-142.62;78.34
6427;BME280;3246;42.664;23.308;2024-03-07T10:23:19;120715.88;;;-142.62;77.78
6427;BME280;3246;42.664;23.308;2024-03-07T10:25:47;120715.88;;;-142.62;78.21
6427;BME280;3246;42.664;23.308;2024-03-07T10:28:16;120715.88;;;-142.62;77.64
6427;BME280;3246;42.664;23.308;2024-03-07T10:30:43;120715.88;;;-142.62;76.84
6427;BME280;3246;42.664;23.308;2024-03-07T10:33:11;120715.88;;;-142.62;76.33
6427;BME280;3246;42.664;23.308;2024-03-07T10:35:39;120715.88;;;-142.62;77.46
6427;BME280;3246;42.664;23.308;2024-03-07T10:38:07;120715.88;;;-142.62;76.65
6427;BME280;3246;42.664;23.308;2024-03-07T10:40:37;120715.88;;;-142.62;76.86
6427;BME280;3246;42.664;23.308;2024-03-07T10:43:09;120715.88;;;-142.62;76.87
6427;BME280;3246;42.664;23.308;2024-03-07T10:45:42;120715.88;;;-142.62;76.11
6427;BME280;3246;42.664;23.308;2024-03-07T10:48:12;120715.88;;;-142.62;76.49
6427;BME280;3246;42.664;23.308;2024-03-07T10:50:45;120715.88;;;-142.62;76.36
6427;BME280;3246;42.664;23.308;2024-03-07T10:53:19;120715.88;;;-142.62;75.56
6427;BME280;3246;42.664;23.308;2024-03-07T10:56:07;120715.88;;;-142.62;74.89
6427;BME280;3246;42.664;23.308;2024-03-07T10:58:44;120715.88;;;-142.62;75.40
6427;BME280;3246;42.664;23.308;2024-03-07T11:01:14;120715.88;;;-142.62;76.02
6427;BME280;3246;42.664;23.308;2024-03-07T11:04:13;120715.88;;;-142.62;75.97
6427;BME280;3246;42.664;23.308;2024-03-07T11:06:40;120715.88;;;-142.62;76.52
6427;BME280;3246;42.664;23.308;2024-03-07T11:09:08;120715.88;;;-142.62;75.39
6427;BME280;3246;42.664;23.308;2024-03-07T11:11:38;120715.88;;;-142.62;75.22
6427;BME280;3246;42.664;23.308;2024-03-07T11:14:07;120715.88;;;-142.62;75.34
6427;BME280;3246;42.664;23.308;2024-03-07T11:16:37;120715.88;;;-142.62;74.81
6427;BME280;3246;42.664;23.308;2024-03-07T11:19:19;120715.88;;;-142.62;75.39
6427;BME280;3246;42.664;23.308;2024-03-07T11:21:48;120715.88;;;-142.62;75.33
6427;BME280;3246;42.664;23.308;2024-03-07T11:24:26;120715.88;;;-142.62;75.67
6427;BME280;3246;42.664;23.308;2024-03-07T11:26:55;120715.88;;;-142.62;75.26
6427;BME280;3246;42.664;23.308;2024-03-07T11:29:42;120715.88;;;-142.62;74.60
6427;BME280;3246;42.664;23.308;2024-03-07T11:32:10;120715.88;;;-142.62;75.03
6427;BME280;3246;42.664;23.308;2024-03-07T11:34:40;120715.88;;;-142.62;74.61
6427;BME280;3246;42.664;23.308;2024-03-07T11:37:08;120715.88;;;-142.62;74.79
6427;BME280;3246;42.664;23.308;2024-03-07T11:39:45;120715.88;;;-142.62;74.66
6427;BME280;3246;42.664;23.308;2024-03-07T11:42:19;120715.88;;;-142.62;76.81
6427;BME280;3246;42.664;23.308;2024-03-07T11:44:48;120715.88;;;-142.62;76.52
6427;BME280;3246;42.664;23.308;2024-03-07T11:47:16;120715.88;;;-142.62;76.59
6427;BME280;3246;42.664;23.308;2024-03-07T11:49:44;120715.88;;;-142.62;76.54
6427;BME280;3246;42.664;23.308;2024-03-07T11:52:14;120715.88;;;-142.62;76.97
6427;BME280;3246;42.664;23.308;2024-03-07T11:54:43;120715.88;;;-142.62;76.44
6427;BME280;3246;42.664;23.308;2024-03-07T11:57:13;120715.88;;;-142.62;75.80
6427;BME280;3246;42.664;23.308;2024-03-07T11:59:40;120715.88;;;-142.62;76.09
6427;BME280;3246;42.664;23.308;2024-03-07T12:02:14;120715.88;;;-142.62;74.36
6427;BME280;3246;42.664;23.308;2024-03-07T12:04:43;120715.88;;;-142.62;74.75
6427;BME280;3246;42.664;23.308;2024-03-07T12:07:10;120715.88;;;-142.62;74.45
6427;BME280;3246;42.664;23.308;2024-03-07T12:09:38;120715.88;;;-142.62;74.55
6427;BME280;3246;42.664;23.308;2024-03-07T12:12:06;120715.88;;;-142.62;74.19
6427;BME280;3246;42.664;23.308;2024-03-07T12:14:34;120715.88;;;-142.62;74.44
6427;BME280;3246;42.664;23.308;2024-03-07T12:17:02;120715.88;;;-142.62;75.06
6427;BME280;3246;42.664;23.308;2024-03-07T12:19:30;120715.88;;;-142.62;75.63
6427;BME280;3246;42.664;23.308;2024-03-07T12:22:00;120715.88;;;-142.62;75.74
6427;BME280;3246;42.664;23.308;2024-03-07T12:24:27;120715.88;;;-142.62;76.44
6427;BME280;3246;42.664;23.308;2024-03-07T12:27:06;120715.88;;;-142.62;75.99
6427;BME280;3246;42.664;23.308;2024-03-07T12:29:35;120715.88;;;-142.62;75.90
6427;BME280;3246;42.664;23.308;2024-03-07T12:32:04;120715.88;;;-142.62;75.56
6427;BME280;3246;42.664;23.308;2024-03-07T12:34:32;120715.88;;;-142.62;74.76
6427;BME280;3246;42.664;23.308;2024-03-07T12:37:02;120715.88;;;-142.62;75.15
6427;BME280;3246;42.664;23.308;2024-03-07T12:39:31;120715.88;;;-142.62;75.54
6427;BME280;3246;42.664;23.308;2024-03-07T12:42:03;120715.88;;;-142.62;75.26
6427;BME280;3246;42.664;23.308;2024-03-07T12:44:40;120715.88;;;-142.62;75.80
6427;BME280;3246;42.664;23.308;2024-03-07T12:47:10;120715.88;;;-142.62;76.21